Gunnison, CO

3:18 PM MDT on August 24, 2016 (GMT -0600)
RAWS | | Change Station

Elev 8993 ft 38.39 °N, 106.53 °W | Updated 56 minutes ago

Partly Cloudy
Partly Cloudy
62.0 °F
Feels Like 62.0 °F
N
3.0
Wind Variable Wind from SW
Gusts 10.0 mph

Today
High -- | Low -- °F
--% Chance of Precip.
Yesterday
High -- | Low -- °F
Precip. -- in
Pressure 30.29 in
Visibility 10.0 miles
Clouds Few 7000 ft
Dew Point 43.0 °F
Humidity 49%
Rainfall in
Snow Depth Not available.
6:29 AM 7:46 PM
Waning Gibbous, 53% visible
METAR KGUC 242115Z 23004KT 10SM FEW070 19/05 A3029 RMK AO1
Pressure 30.29 in
Visibility 10.0 miles
Clouds Few 7000 ft
Dew Point 43.0 °F
Humidity 49%
Rainfall in
Snow Depth Not available.
6:29 AM 7:46 PM
Waning Gibbous, 53% visible
METAR KGUC 242115Z 23004KT 10SM FEW070 19/05 A3029 RMK AO1

10-Day Weather Forecast

Almanac

Astronomy

Aug. 24, 2016 Rise Set
Actual Time
Civil Twilight
Nautical Twilight
Astronomical Twilight
Moon
Length of Visible Light
Length of Day
Tomorrow will be .
, % of the Moon is Illuminated

Today's Extremes

State Highs State Lows

Community

WunderPhotos

Upload Photos

1,934,717 photos uploaded!

WunderBlog® & News

Nearby

Air Quality

  Air Quality AQ Index Pollutant
Not available.

Snow Depth

Station Depth Elevation

Earthquake Activity

City Distance Mag. Time & Date
Minimum magnitude displayed is 2.5.

Coastal Water Temperatures

Place Temperature

Stations

Nearby Weather Stations

Station Location Temp. Windchill Dew Point Humidity Wind Precip. Elev Updated Type
                   

Watches & Warnings

There are currently no watches in effect.